createdAt,value
2018-11-20T00:00:25.603Z,5.53
2018-11-20T00:03:19.709Z,5.53
2018-11-20T00:06:05.866Z,5.60
2018-11-20T00:08:44.625Z,5.50
2018-11-20T00:11:23.426Z,6.27
2018-11-20T00:14:11.394Z,5.90
2018-11-20T00:16:59.062Z,5.33
2018-11-20T00:19:39.586Z,6.27
2018-11-20T00:22:27.149Z,6.23
2018-11-20T00:25:07.133Z,5.97
2018-11-20T00:27:52.216Z,5.77
2018-11-20T00:30:31.561Z,5.97
2018-11-20T00:33:17.892Z,5.83
2018-11-20T00:36:05.459Z,5.60
2018-11-20T00:38:43.430Z,6.17
2018-11-20T00:41:29.395Z,6.43
2018-11-20T00:44:22.680Z,6.53
2018-11-20T00:47:25.566Z,5.73
2018-11-20T00:50:11.732Z,5.90
2018-11-20T00:52:55.161Z,6.80
2018-11-20T00:56:28.782Z,6.87
2018-11-20T00:59:16.310Z,7.27
2018-11-20T01:02:09.714Z,7.10
2018-11-20T01:04:55.966Z,7.23
2018-11-20T01:07:42.369Z,7.13
2018-11-20T01:10:38.781Z,7.63
2018-11-20T01:13:23.349Z,7.50
2018-11-20T01:16:11.627Z,7.97
2018-11-20T01:19:05.217Z,7.50
2018-11-20T01:21:52.774Z,7.67
2018-11-20T01:24:42.988Z,8.33
2018-11-20T01:27:30.557Z,8.43
2018-11-20T01:30:27.480Z,8.27
2018-11-20T01:33:09.378Z,8.70
2018-11-20T01:35:56.921Z,8.70
2018-11-20T01:38:43.276Z,8.93
2018-11-20T01:41:21.167Z,9.70
2018-11-20T01:44:27.166Z,9.87
2018-11-20T01:47:12.317Z,9.50
2018-11-20T01:49:59.948Z,10.53
2018-11-20T01:52:50.222Z,9.57
2018-11-20T01:55:43.647Z,10.10
2018-11-20T01:58:18.752Z,9.83
2018-11-20T02:01:04.829Z,10.13
2018-11-20T02:03:52.806Z,9.63
2018-11-20T02:06:39.082Z,9.93
2018-11-20T02:09:33.364Z,10.30
2018-11-20T02:12:21.037Z,11.13
2018-11-20T02:15:11.449Z,11.27
2018-11-20T02:18:15.403Z,10.70
2018-11-20T02:20:59.268Z,10.43
2018-11-20T02:23:52.720Z,10.57
2018-11-20T02:26:48.602Z,10.87
2018-11-20T02:29:34.805Z,10.83
2018-11-20T02:32:23.719Z,10.03
2018-11-20T02:35:08.473Z,11.57
2018-11-20T02:38:02.420Z,10.23
2018-11-20T02:40:39.514Z,11.33
2018-11-20T02:43:45.191Z,11.03
2018-11-20T02:46:31.848Z,11.37
2018-11-20T02:49:19.324Z,12.37
2018-11-20T02:52:05.783Z,11.20
2018-11-20T02:54:52.483Z,11.57
2018-11-20T02:57:58.041Z,11.87
2018-11-20T03:00:57.748Z,11.73
2018-11-20T03:03:44.393Z,11.67
2018-11-20T03:06:28.541Z,11.80
2018-11-20T03:09:20.873Z,11.83
2018-11-20T03:12:11.293Z,11.30
2018-11-20T03:14:57.896Z,11.83
2018-11-20T03:17:44.300Z,12.50
2018-11-20T03:20:31.885Z,13.37
2018-11-20T03:23:09.112Z,13.27
2018-11-20T03:26:21.647Z,14.27
2018-11-20T03:29:17.365Z,15.40
2018-11-20T03:32:03.085Z,14.27
2018-11-20T03:34:44.196Z,14.87
2018-11-20T03:37:18.355Z,15.20
2018-11-20T03:40:09.577Z,14.27
2018-11-20T03:43:06.868Z,14.43
2018-11-20T03:45:58.963Z,15.60
2018-11-20T03:48:45.327Z,15.07
2018-11-20T03:51:36.279Z,14.17
2018-11-20T03:54:23.729Z,15.00
2018-11-20T03:57:04.358Z,14.70
2018-11-20T03:59:50.447Z,14.40
2018-11-20T04:02:44.094Z,13.60
2018-11-20T04:05:30.346Z,14.33
2018-11-20T04:08:30.026Z,15.13
2018-11-20T04:11:17.585Z,15.33
2018-11-20T04:13:57.389Z,14.17
2018-11-20T04:16:57.796Z,14.20
2018-11-20T04:19:49.041Z,14.73
2018-11-20T04:22:34.862Z,14.70
2018-11-20T04:25:25.125Z,13.67
2018-11-20T04:28:21.730Z,14.63
2018-11-20T04:31:48.779Z,14.83
2018-11-20T04:34:51.385Z,13.93
2018-11-20T04:37:37.891Z,14.03
2018-11-20T04:40:29.060Z,12.70
2018-11-20T04:43:34.674Z,13.33
2018-11-20T04:46:28.317Z,14.80
2018-11-20T04:49:06.112Z,13.40
2018-11-20T04:51:52.229Z,13.87
2018-11-20T04:54:45.961Z,14.20
2018-11-20T04:57:27.245Z,13.90
2018-11-20T05:00:13.315Z,13.77
2018-11-20T05:03:06.848Z,13.37
2018-11-20T05:06:03.544Z,13.60
2018-11-20T05:08:51.083Z,13.23
2018-11-20T05:11:37.231Z,13.70
2018-11-20T05:14:23.562Z,13.67
2018-11-20T05:17:13.763Z,13.97
2018-11-20T05:20:01.296Z,13.60
2018-11-20T05:22:55.042Z,14.43
2018-11-20T05:25:41.144Z,13.63
2018-11-20T05:28:40.825Z,13.07
2018-11-20T05:31:27.285Z,12.93
2018-11-20T05:34:10.672Z,18.90
2018-11-20T05:37:09.049Z,14.20
2018-11-20T05:39:59.535Z,13.10
2018-11-20T05:42:52.946Z,13.57
2018-11-20T05:45:36.310Z,13.00
2018-11-20T05:48:29.944Z,13.97
2018-11-20T05:51:12.382Z,13.33
2018-11-20T05:54:18.106Z,14.07
2018-11-20T05:57:17.932Z,13.57
2018-11-20T06:00:05.565Z,14.10
2018-11-20T06:02:58.445Z,13.93
2018-11-20T06:05:54.756Z,14.07
2018-11-20T06:08:42.444Z,14.40
2018-11-20T06:11:48.492Z,13.30
2018-11-20T06:14:46.992Z,13.90
2018-11-20T06:17:37.195Z,14.00
2018-11-20T06:20:23.969Z,13.90
2018-11-20T06:23:16.265Z,13.67
2018-11-20T06:26:09.981Z,14.10
2018-11-20T06:28:51.812Z,13.93
2018-11-20T06:31:45.129Z,14.47
2018-11-20T06:34:44.830Z,13.37
2018-11-20T06:37:31.991Z,13.40
2018-11-20T06:40:38.012Z,14.13
2018-11-20T06:43:28.488Z,14.43
2018-11-20T06:46:24.967Z,13.47
2018-11-20T06:49:11.187Z,13.60
2018-11-20T06:51:57.449Z,13.60
2018-11-20T06:54:43.648Z,13.97
2018-11-20T06:57:40.329Z,14.50
2018-11-20T07:00:37.138Z,13.97
2018-11-20T07:03:24.077Z,13.43
2018-11-20T07:06:23.639Z,14.37
2018-11-20T07:09:13.886Z,15.03
2018-11-20T07:12:10.365Z,15.37
2018-11-20T07:14:57.921Z,14.90
2018-11-20T07:17:44.094Z,14.70
2018-11-20T07:20:40.545Z,15.67
2018-11-20T07:23:18.677Z,14.57
2018-11-20T07:26:09.176Z,14.60
2018-11-20T07:28:55.704Z,14.67
2018-11-20T07:32:01.468Z,14.90
2018-11-20T07:34:55.001Z,14.67
2018-11-20T07:37:41.300Z,15.40
2018-11-20T07:40:28.881Z,16.03
2018-11-20T07:43:34.718Z,15.27
2018-11-20T07:46:24.764Z,15.07
2018-11-20T07:49:13.221Z,15.17
2018-11-20T07:52:00.804Z,15.70
2018-11-20T07:55:06.872Z,16.20
2018-11-20T07:57:54.787Z,14.00
2018-11-20T08:00:45.271Z,15.60
2018-11-20T08:03:31.383Z,15.40
2018-11-20T08:06:28.186Z,14.37
2018-11-20T08:09:13.987Z,15.27
2018-11-20T08:12:10.545Z,15.17
2018-11-20T08:14:56.857Z,14.27
2018-11-20T08:17:44.421Z,14.80
2018-11-20T08:20:37.916Z,15.33
2018-11-20T08:23:23.986Z,15.70
2018-11-20T08:26:23.393Z,14.80
2018-11-20T08:29:07.198Z,15.23
2018-11-20T08:31:57.533Z,14.17
2018-11-20T08:34:46.935Z,14.60
2018-11-20T08:37:37.334Z,15.67
2018-11-20T08:40:25.131Z,14.77
2018-11-20T08:43:11.568Z,15.33
2018-11-20T08:45:57.707Z,15.87
2018-11-20T08:48:45.277Z,15.17
2018-11-20T08:51:31.716Z,14.27
2018-11-20T08:54:19.346Z,15.27
2018-11-20T08:57:19.342Z,16.03
2018-11-20T09:00:24.969Z,15.00
2018-11-20T09:03:18.550Z,15.03
2018-11-20T09:06:12.024Z,15.10
2018-11-20T09:09:00.610Z,15.50
2018-11-20T09:11:46.744Z,15.40
2018-11-20T09:14:34.386Z,15.50
2018-11-20T09:17:31.125Z,14.97
2018-11-20T09:20:19.289Z,14.40
2018-11-20T09:23:06.497Z,15.07
2018-11-20T09:25:53.018Z,15.37
2018-11-20T09:28:49.257Z,15.40
2018-11-20T09:31:35.749Z,14.47
2018-11-20T09:34:32.113Z,14.93
2018-11-20T09:37:18.595Z,14.67
2018-11-20T09:40:49.150Z,15.47
2018-11-20T09:43:36.258Z,15.40
2018-11-20T09:46:26.764Z,15.07
2018-11-20T09:49:12.943Z,15.03
2018-11-20T09:52:03.102Z,15.30
2018-11-20T09:54:49.176Z,15.57
2018-11-20T09:57:57.294Z,15.40
2018-11-20T10:00:43.487Z,16.07
2018-11-20T10:03:37.087Z,14.90
2018-11-20T10:06:23.395Z,15.17
2018-11-20T10:09:07.992Z,15.57
2018-11-20T10:11:55.562Z,15.77
2018-11-20T10:14:49.230Z,15.10
2018-11-20T10:17:48.495Z,15.73
2018-11-20T10:20:36.049Z,15.77
2018-11-20T10:23:22.444Z,14.90
2018-11-20T10:26:08.895Z,15.33
2018-11-20T10:29:05.314Z,15.40
2018-11-20T10:32:12.533Z,15.60
2018-11-20T10:34:53.226Z,16.23
2018-11-20T10:37:39.455Z,20.27
2018-11-20T10:40:27.083Z,17.40
2018-11-20T10:43:13.381Z,16.23
2018-11-20T10:46:07.058Z,15.60
2018-11-20T10:49:12.594Z,16.87
2018-11-20T10:51:48.729Z,16.87
2018-11-20T10:54:36.334Z,16.67
2018-11-20T10:57:23.887Z,15.33
2018-11-20T11:00:09.974Z,16.57
2018-11-20T11:02:56.064Z,14.40
2018-11-20T11:05:47.342Z,15.47
2018-11-20T11:08:33.842Z,15.37
2018-11-20T11:11:21.480Z,15.13
2018-11-20T11:14:14.762Z,15.10
2018-11-20T11:16:52.308Z,14.70
2018-11-20T11:19:48.915Z,15.43
2018-11-20T11:22:42.338Z,15.87
2018-11-20T11:25:48.304Z,15.10
2018-11-20T11:28:34.891Z,16.00
2018-11-20T11:31:37.722Z,15.30
2018-11-20T11:34:24.185Z,14.60
2018-11-20T11:37:07.481Z,14.63
2018-11-20T11:39:54.044Z,15.47
2018-11-20T11:42:50.818Z,15.00
2018-11-20T11:45:36.815Z,15.20
2018-11-20T11:48:26.575Z,14.80
2018-11-20T11:51:17.308Z,15.57
2018-11-20T11:54:04.850Z,15.47
2018-11-20T11:56:52.420Z,14.73
2018-11-20T11:59:51.967Z,15.27
2018-11-20T12:05:21.646Z,15.13
2018-11-20T12:08:01.653Z,15.23
2018-11-20T12:11:04.519Z,15.17
2018-11-20T12:13:45.271Z,14.73
2018-11-20T12:16:38.737Z,15.53
2018-11-20T12:19:27.011Z,16.17
2018-11-20T12:22:12.593Z,15.33
2018-11-20T12:24:53.744Z,15.63
2018-11-20T12:27:53.403Z,15.57
2018-11-20T12:30:40.974Z,16.13
2018-11-20T12:33:41.942Z,15.60
2018-11-20T12:36:34.190Z,15.27
2018-11-20T12:39:21.873Z,15.40
2018-11-20T12:42:12.122Z,16.13
2018-11-20T12:44:58.382Z,15.37
2018-11-20T12:47:48.626Z,15.57
2018-11-20T12:50:36.167Z,15.83
2018-11-20T12:53:14.571Z,16.00
2018-11-20T12:56:14.412Z,15.17
2018-11-20T12:59:01.999Z,15.50
2018-11-20T13:01:49.555Z,17.00
2018-11-20T13:04:39.779Z,15.73
2018-11-20T13:07:29.185Z,15.87
2018-11-20T13:10:15.601Z,16.30
2018-11-20T13:13:01.680Z,15.47
2018-11-20T13:15:49.444Z,16.27
2018-11-20T13:18:29.555Z,17.37
2018-11-20T13:21:19.754Z,17.17
2018-11-20T13:24:09.609Z,16.37
2018-11-20T13:27:00.089Z,16.63
2018-11-20T13:29:39.189Z,16.53
2018-11-20T13:32:23.451Z,15.97
2018-11-20T13:35:24.846Z,16.57
2018-11-20T13:38:16.940Z,16.67
2018-11-20T13:41:37.797Z,16.33
2018-11-20T13:44:23.606Z,17.60
2018-11-20T13:47:29.671Z,17.00
2018-11-20T13:50:15.975Z,17.90
2018-11-20T13:53:02.365Z,17.57
2018-11-20T13:56:05.198Z,17.40
2018-11-20T13:59:01.860Z,17.20
2018-11-20T14:01:55.114Z,17.67
2018-11-20T14:04:41.527Z,16.60
2018-11-20T14:07:26.125Z,17.63
2018-11-20T14:10:19.380Z,16.80
2018-11-20T14:13:05.882Z,18.60
2018-11-20T14:15:53.403Z,18.20
2018-11-20T14:18:52.928Z,17.87
2018-11-20T14:21:46.290Z,18.20
2018-11-20T14:24:32.797Z,17.87
2018-11-20T14:27:23.305Z,18.50
2018-11-20T14:30:09.967Z,17.67
2018-11-20T14:32:55.271Z,17.93
2018-11-20T14:35:41.822Z,17.30
2018-11-20T14:38:32.279Z,17.93
2018-11-20T14:41:12.976Z,17.73
2018-11-20T14:43:59.424Z,18.27
2018-11-20T14:46:47.008Z,18.43
2018-11-20T14:49:40.780Z,16.80
2018-11-20T14:52:20.764Z,17.63
2018-11-20T14:55:11.429Z,17.23
2018-11-20T14:57:57.711Z,17.07
2018-11-20T15:00:43.214Z,16.60
2018-11-20T15:03:42.408Z,16.30
2018-11-20T15:06:32.432Z,15.70
2018-11-20T15:09:18.433Z,14.73
2018-11-20T15:12:14.914Z,16.40
2018-11-20T15:15:11.190Z,14.67
2018-11-20T15:18:13.763Z,14.97
2018-11-20T15:21:07.316Z,15.10
2018-11-20T15:23:53.625Z,14.00
2018-11-20T15:26:59.930Z,13.67
2018-11-20T15:29:50.231Z,12.60
2018-11-20T15:32:40.429Z,12.73
2018-11-20T15:35:27.989Z,11.97
2018-11-20T15:38:18.129Z,12.53
2018-11-20T15:40:56.579Z,11.73
2018-11-20T15:43:42.981Z,11.53
2018-11-20T15:46:33.514Z,11.03
2018-11-20T15:49:20.800Z,9.93
2018-11-20T15:52:08.327Z,9.23
2018-11-20T15:54:55.913Z,9.10
2018-11-20T15:57:37.049Z,8.50
2018-11-20T16:00:35.124Z,8.67
2018-11-20T16:03:31.717Z,7.97
2018-11-20T16:06:28.341Z,7.97
2018-11-20T16:09:18.781Z,7.43
2018-11-20T16:12:21.420Z,7.47
2018-11-20T16:15:21.069Z,7.67
2018-11-20T16:18:04.107Z,7.63
2018-11-20T16:21:03.829Z,7.30
2018-11-20T16:23:51.398Z,7.10
2018-11-20T16:26:42.688Z,7.13
2018-11-20T16:29:36.229Z,7.40
2018-11-20T16:32:25.734Z,7.07
2018-11-20T16:35:12.589Z,6.60
2018-11-20T16:38:03.169Z,7.33
2018-11-20T16:40:41.557Z,7.20
2018-11-20T16:43:30.357Z,6.97
2018-11-20T16:46:09.127Z,7.40
2018-11-20T16:48:56.705Z,7.60
2018-11-20T16:51:56.570Z,7.07
2018-11-20T16:54:33.177Z,7.63
2018-11-20T16:57:17.093Z,7.60
2018-11-20T17:00:03.181Z,7.20
2018-11-20T17:02:49.417Z,7.97
2018-11-20T17:05:44.577Z,8.00
2018-11-20T17:08:30.762Z,7.67
2018-11-20T17:11:28.749Z,8.13
2018-11-20T17:14:15.933Z,8.20
2018-11-20T17:17:21.823Z,8.27
2018-11-20T17:20:18.483Z,9.07
2018-11-20T17:23:08.267Z,8.53
2018-11-20T17:26:07.608Z,8.73
2018-11-20T17:28:53.869Z,9.13
2018-11-20T17:31:40.427Z,9.43
2018-11-20T17:34:37.805Z,9.00
2018-11-20T17:37:25.004Z,8.97
2018-11-20T17:40:11.507Z,9.20
2018-11-20T17:43:01.549Z,8.77
2018-11-20T17:46:01.287Z,9.70
2018-11-20T17:48:45.921Z,9.37
2018-11-20T17:51:30.712Z,8.63
2018-11-20T17:54:25.270Z,13.80
2018-11-20T17:57:11.799Z,9.63
2018-11-20T17:59:51.961Z,9.43
2018-11-20T18:02:45.516Z,10.40
2018-11-20T18:05:33.151Z,8.97
2018-11-20T18:08:19.189Z,9.53
2018-11-20T18:11:21.821Z,10.07
2018-11-20T18:14:08.351Z,10.13
2018-11-20T18:16:54.436Z,9.30
2018-11-20T18:19:48.828Z,9.97
2018-11-20T18:22:35.149Z,10.07
2018-11-20T18:25:34.719Z,9.87
2018-11-20T18:28:24.851Z,10.53
2018-11-20T18:31:21.448Z,14.50
2018-11-20T18:34:24.365Z,29.67
2018-11-20T18:37:21.487Z,10.77
2018-11-20T18:40:09.200Z,10.87
2018-11-20T18:43:06.642Z,11.23
2018-11-20T18:45:54.292Z,11.80
2018-11-20T18:48:57.093Z,11.37
2018-11-20T18:51:50.992Z,11.43
2018-11-20T18:54:38.696Z,11.00
2018-11-20T18:57:21.363Z,11.30
2018-11-20T19:00:09.057Z,11.60
2018-11-20T19:03:02.289Z,11.97
2018-11-20T19:05:49.880Z,11.97
2018-11-20T19:08:36.522Z,11.47
2018-11-20T19:11:15.178Z,12.13
2018-11-20T19:14:17.672Z,12.60
2018-11-20T19:17:06.447Z,11.80
2018-11-20T19:20:02.218Z,12.10
2018-11-20T19:22:48.523Z,11.90
2018-11-20T19:25:31.624Z,13.60
2018-11-20T19:28:10.982Z,12.57
2018-11-20T19:31:16.989Z,12.53
2018-11-20T19:34:03.227Z,17.80
2018-11-20T19:36:50.894Z,17.00
2018-11-20T19:39:39.750Z,17.30
2018-11-20T19:42:33.490Z,14.40
2018-11-20T19:45:14.388Z,13.10
2018-11-20T19:48:03.256Z,13.67
2018-11-20T19:50:49.655Z,13.77
2018-11-20T19:53:44.271Z,12.70
2018-11-20T19:56:39.468Z,14.13
2018-11-20T19:59:25.479Z,14.33
2018-11-20T20:02:11.929Z,13.17
2018-11-20T20:04:57.865Z,14.90
2018-11-20T20:07:54.854Z,13.83
2018-11-20T20:10:40.722Z,13.63
2018-11-20T20:13:40.549Z,14.63
2018-11-20T20:16:21.514Z,14.00
2018-11-20T20:19:05.101Z,13.73
2018-11-20T20:21:58.427Z,14.10
2018-11-20T20:24:44.716Z,13.97
2018-11-20T20:27:32.248Z,13.90
2018-11-20T20:30:16.440Z,14.60
2018-11-20T20:32:54.422Z,13.23
2018-11-20T20:35:51.091Z,14.03
2018-11-20T20:38:57.206Z,14.27
2018-11-20T20:41:43.844Z,16.33
2018-11-20T20:44:37.303Z,16.97
2018-11-20T20:47:23.561Z,17.30
2018-11-20T20:50:13.883Z,16.37
2018-11-20T20:53:04.288Z,14.77
2018-11-20T20:56:07.153Z,14.33
2018-11-20T20:58:55.798Z,14.03
2018-11-20T21:01:43.387Z,14.63
2018-11-20T21:04:29.859Z,14.47
2018-11-20T21:07:29.501Z,14.83
2018-11-20T21:10:17.071Z,13.70
2018-11-20T21:13:08.382Z,14.13
2018-11-20T21:15:54.496Z,14.40
2018-11-20T21:18:47.991Z,14.70
2018-11-20T21:21:40.783Z,14.20
2018-11-20T21:24:24.499Z,14.93
2018-11-20T21:27:10.763Z,13.93
2018-11-20T21:29:57.244Z,14.63
2018-11-20T21:32:43.591Z,14.67
2018-11-20T21:35:46.925Z,14.13
2018-11-20T21:38:41.717Z,14.63
2018-11-20T21:41:38.358Z,13.77
2018-11-20T21:44:35.099Z,13.93
2018-11-20T21:47:22.937Z,14.40
2018-11-20T21:50:13.444Z,14.37
2018-11-20T21:53:10.029Z,14.70
2018-11-20T21:56:10.067Z,14.07
2018-11-20T21:59:09.875Z,14.67
2018-11-20T22:02:01.028Z,14.37
2018-11-20T22:04:54.520Z,13.93
2018-11-20T22:07:48.351Z,13.30
2018-11-20T22:10:38.985Z,13.93
2018-11-20T22:13:31.456Z,14.63
2018-11-20T22:16:20.735Z,13.93
2018-11-20T22:19:08.328Z,14.53
2018-11-20T22:21:54.486Z,14.17
2018-11-20T22:24:44.704Z,14.83
2018-11-20T22:27:30.873Z,13.97
2018-11-20T22:30:24.436Z,14.10
2018-11-20T22:33:08.282Z,14.87
2018-11-20T22:35:52.424Z,13.93
2018-11-20T22:38:38.777Z,14.97
2018-11-20T22:41:16.913Z,14.10
2018-11-20T22:44:07.894Z,13.20
2018-11-20T22:47:10.387Z,13.23
2018-11-20T22:49:53.578Z,14.57
2018-11-20T22:52:33.997Z,13.07
2018-11-20T22:55:21.573Z,14.97
2018-11-20T22:58:09.026Z,13.67
2018-11-20T23:00:58.113Z,13.13
2018-11-20T23:03:48.598Z,13.10
2018-11-20T23:06:33.555Z,12.80
2018-11-20T23:09:04.374Z,13.17
2018-11-20T23:11:37.146Z,13.17
2018-11-20T23:14:09.064Z,12.50
2018-11-20T23:16:37.498Z,13.43
2018-11-20T23:19:06.215Z,15.60
2018-11-20T23:21:34.660Z,12.80
2018-11-20T23:24:03.125Z,13.53
2018-11-20T23:26:32.438Z,13.17
2018-11-20T23:29:00.941Z,13.57
2018-11-20T23:31:29.405Z,13.27
2018-11-20T23:33:57.832Z,13.50
2018-11-20T23:36:26.302Z,13.50
2018-11-20T23:38:54.729Z,13.90
2018-11-20T23:41:23.142Z,13.57
2018-11-20T23:43:51.558Z,13.87
2018-11-20T23:46:19.983Z,14.57
2018-11-20T23:48:48.421Z,14.70
2018-11-20T23:51:16.867Z,13.73
2018-11-20T23:53:47.988Z,14.07
2018-11-20T23:56:16.617Z,14.53
2018-11-20T23:58:45.044Z,14.07
